createdAt,value
2023-02-02T00:00:33.995Z,97492.91
2023-02-02T00:05:35.930Z,97488.22
2023-02-02T00:10:37.747Z,97498.34
2023-02-02T00:15:40.588Z,97512.50
2023-02-02T00:20:42.401Z,97503.09
2023-02-02T00:25:44.261Z,97503.47
2023-02-02T00:30:46.144Z,97511.56
2023-02-02T00:35:48.017Z,97515.81
2023-02-02T00:40:49.908Z,97518.66
2023-02-02T00:45:52.088Z,97524.94
2023-02-02T00:50:54.920Z,97524.56
2023-02-02T00:55:57.113Z,97524.41
2023-02-02T01:00:58.951Z,97539.00
2023-02-02T01:06:00.736Z,97536.56
2023-02-02T01:11:02.557Z,97541.00
2023-02-02T01:16:05.484Z,97547.63
2023-02-02T01:21:10.123Z,97545.75
2023-02-02T01:26:13.124Z,97541.03
2023-02-02T01:31:17.949Z,97550.72
2023-02-02T01:36:22.384Z,97538.75
2023-02-02T01:41:25.965Z,97529.78
2023-02-02T01:46:32.179Z,97545.34
2023-02-02T01:51:53.693Z,97549.53
2023-02-02T01:57:09.700Z,97550.50
2023-02-02T02:02:12.674Z,97554.81
2023-02-02T02:07:14.613Z,97563.44
2023-02-02T02:12:16.785Z,97567.78
2023-02-02T02:17:37.885Z,97565.06
2023-02-02T02:23:19.924Z,97569.38
2023-02-02T02:28:46.035Z,97556.13
2023-02-02T02:33:56.782Z,97564.22
2023-02-02T02:39:37.450Z,97555.31
2023-02-02T02:44:40.064Z,97555.19
2023-02-02T02:49:43.657Z,97558.13
2023-02-02T02:54:49.923Z,97565.41
2023-02-02T03:00:12.393Z,97577.78
2023-02-02T03:05:31.033Z,97571.59
2023-02-02T03:10:34.092Z,97580.84
2023-02-02T03:15:36.064Z,97585.78
2023-02-02T03:20:37.928Z,97599.19
2023-02-02T03:25:39.749Z,97586.94
2023-02-02T03:30:43.241Z,97593.69
2023-02-02T03:35:45.308Z,97589.91
2023-02-02T03:40:47.156Z,97593.44
2023-02-02T03:45:55.109Z,97598.31
2023-02-02T03:50:57.261Z,97606.16
2023-02-02T03:55:59.017Z,97614.00
2023-02-02T04:01:11.330Z,97616.06
2023-02-02T04:06:13.126Z,97626.69
2023-02-02T04:11:15.025Z,97626.84
2023-02-02T04:16:16.915Z,97626.97
2023-02-02T04:21:18.822Z,97623.72
2023-02-02T04:26:20.761Z,97636.53
2023-02-02T04:31:22.641Z,97642.63
2023-02-02T04:36:24.516Z,97636.97
2023-02-02T04:41:26.364Z,97637.66
2023-02-02T04:46:28.718Z,97640.91
2023-02-02T04:51:30.507Z,97635.63
2023-02-02T04:56:32.336Z,97635.63
2023-02-02T05:01:34.218Z,97640.66
2023-02-02T05:06:36.152Z,97639.72
2023-02-02T05:11:39.196Z,97651.75
2023-02-02T05:16:41.130Z,97659.06
2023-02-02T05:21:50.965Z,97666.63
2023-02-02T05:26:58.485Z,97685.03
2023-02-02T05:32:00.595Z,97693.44
2023-02-02T05:37:02.461Z,97696.09
2023-02-02T05:42:04.401Z,97687.50
2023-02-02T05:47:06.187Z,97701.25
2023-02-02T05:52:09.303Z,97697.63
2023-02-02T05:57:11.305Z,97707.31
2023-02-02T06:02:13.089Z,97708.56
2023-02-02T06:07:14.887Z,97718.59
2023-02-02T06:12:18.826Z,97713.47
2023-02-02T06:17:20.648Z,97712.81
2023-02-02T06:22:23.147Z,97702.38
2023-02-02T06:27:25.781Z,97711.69
2023-02-02T06:32:29.827Z,97719.84
2023-02-02T06:37:31.656Z,97720.78
2023-02-02T06:42:34.254Z,97716.44
2023-02-02T06:47:36.111Z,97726.59
2023-02-02T06:52:37.959Z,97729.06
2023-02-02T06:57:39.761Z,97733.09
2023-02-02T07:02:45.941Z,97740.81
2023-02-02T07:07:47.859Z,97751.31
2023-02-02T07:12:49.650Z,97749.59
2023-02-02T07:17:51.553Z,97762.50
2023-02-02T07:22:53.443Z,97766.94
2023-02-02T07:27:55.339Z,97762.59
2023-02-02T07:32:57.503Z,97768.44
2023-02-02T07:37:59.311Z,97782.97
2023-02-02T07:43:02.543Z,97778.63
2023-02-02T07:48:04.773Z,97781.88
2023-02-02T07:53:06.563Z,97790.28
2023-02-02T07:58:10.267Z,97786.91
2023-02-02T08:03:12.510Z,97795.28
2023-02-02T08:08:14.483Z,97781.09
2023-02-02T08:13:16.590Z,97797.50
2023-02-02T08:18:18.380Z,97809.47
2023-02-02T08:23:23.713Z,97812.84
2023-02-02T08:28:25.553Z,97814.91
2023-02-02T08:33:27.391Z,97831.31
2023-02-02T08:38:29.315Z,97828.66
2023-02-02T08:43:31.123Z,97836.91
2023-02-02T08:48:34.536Z,97843.38
2023-02-02T08:53:36.422Z,97852.03
2023-02-02T08:58:38.517Z,97857.47
2023-02-02T09:03:40.512Z,97862.03
2023-02-02T09:08:42.480Z,97860.56
2023-02-02T09:13:47.300Z,97854.41
2023-02-02T09:18:49.133Z,97862.44
2023-02-02T09:23:53.813Z,97876.28
2023-02-02T09:28:58.174Z,97870.63
2023-02-02T09:34:05.284Z,97887.56
2023-02-02T09:39:08.603Z,97877.56
2023-02-02T09:44:22.360Z,97884.88
2023-02-02T09:49:57.720Z,97890.44
2023-02-02T09:55:04.853Z,97899.25
2023-02-02T10:00:16.532Z,97887.88
2023-02-02T10:05:26.772Z,97896.03
2023-02-02T10:10:35.643Z,97899.81
2023-02-02T10:15:44.337Z,97900.34
2023-02-02T10:21:03.843Z,97892.78
2023-02-02T10:26:14.642Z,97892.94
2023-02-02T10:31:45.534Z,97901.72
2023-02-02T10:37:16.317Z,97902.34
2023-02-02T10:42:36.748Z,97900.34
2023-02-02T10:47:38.974Z,97911.56
2023-02-02T10:52:46.787Z,97904.91
2023-02-02T10:58:01.759Z,97914.47
2023-02-02T11:03:05.084Z,97904.72
2023-02-02T11:08:14.138Z,97913.94
2023-02-02T11:13:25.187Z,97923.00
2023-02-02T11:18:28.830Z,97923.00
2023-02-02T11:23:32.120Z,97931.97
2023-02-02T11:28:36.061Z,97932.38
2023-02-02T11:33:38.450Z,97950.28
2023-02-02T11:38:40.305Z,97954.88
2023-02-02T11:43:49.613Z,97949.06
2023-02-02T11:49:13.869Z,97951.91
2023-02-02T11:54:42.465Z,97959.09
2023-02-02T11:59:46.081Z,97966.16
2023-02-02T12:04:49.632Z,97968.06
2023-02-02T12:09:52.050Z,97967.34
2023-02-02T12:15:19.920Z,97978.88
2023-02-02T12:20:33.427Z,97978.19
2023-02-02T12:25:55.763Z,97989.06
2023-02-02T12:31:06.484Z,97988.41
2023-02-02T12:36:08.339Z,97982.06
2023-02-02T12:41:22.287Z,97995.19
2023-02-02T12:46:40.959Z,97998.31
2023-02-02T12:52:38.395Z,97997.81
2023-02-02T12:57:58.449Z,97997.63
2023-02-02T13:03:16.580Z,97991.84
2023-02-02T13:08:27.255Z,97987.66
2023-02-02T13:13:39.107Z,97999.81
2023-02-02T13:18:55.816Z,98011.00
2023-02-02T13:24:01.511Z,98020.44
2023-02-02T13:29:26.474Z,98035.03
2023-02-02T13:34:44.569Z,98044.50
2023-02-02T13:39:56.103Z,98043.22
2023-02-02T13:45:06.370Z,98042.41
2023-02-02T13:50:17.112Z,98064.28
2023-02-02T13:56:00.371Z,98077.59
2023-02-02T14:01:07.491Z,98083.84
2023-02-02T14:06:18.303Z,98103.47
2023-02-02T14:11:26.985Z,98098.19
2023-02-02T14:16:31.877Z,98100.09
2023-02-02T14:21:33.680Z,98102.78
2023-02-02T14:26:48.248Z,98117.44
2023-02-02T14:31:55.627Z,98123.53
2023-02-02T14:37:20.735Z,98124.50
2023-02-02T14:42:44.157Z,98135.47
2023-02-02T14:47:52.770Z,98146.84
2023-02-02T14:53:05.364Z,98152.97
2023-02-02T14:58:07.995Z,98160.88
2023-02-02T15:03:46.205Z,98159.59
2023-02-02T15:09:19.819Z,98166.03
2023-02-02T15:14:23.462Z,98181.09
2023-02-02T15:19:33.437Z,98183.31
2023-02-02T15:24:37.671Z,98200.63
2023-02-02T15:29:46.222Z,98196.97
2023-02-02T15:35:01.699Z,98223.16
2023-02-02T15:40:05.669Z,98225.25
2023-02-02T15:45:45.837Z,98230.03
2023-02-02T15:50:51.277Z,98252.25
2023-02-02T15:55:54.837Z,98266.72
2023-02-02T16:01:03.705Z,98262.75
2023-02-02T16:06:07.825Z,98277.56
2023-02-02T16:11:19.233Z,98286.22
2023-02-02T16:16:27.840Z,98298.25
2023-02-02T16:21:31.251Z,98310.78
2023-02-02T16:26:35.622Z,98323.50
2023-02-02T16:31:37.737Z,98336.34
2023-02-02T16:36:39.988Z,98345.09
2023-02-02T16:41:41.861Z,98344.63
2023-02-02T16:46:47.728Z,98350.81
2023-02-02T16:52:11.815Z,98360.63
2023-02-02T16:57:21.718Z,98377.66
2023-02-02T17:02:40.815Z,98376.19
2023-02-02T17:07:51.827Z,98388.09
2023-02-02T17:12:53.702Z,98396.41
2023-02-02T17:17:55.938Z,98407.84
2023-02-02T17:23:05.114Z,98426.16
2023-02-02T17:28:11.924Z,98433.72
2023-02-02T17:33:16.421Z,98440.25
2023-02-02T17:38:18.203Z,98452.81
2023-02-02T17:43:20.106Z,98456.19
2023-02-02T17:48:22.017Z,98455.22
2023-02-02T17:53:23.906Z,98459.44
2023-02-02T17:58:25.675Z,98454.69
2023-02-02T18:03:34.228Z,98458.03
2023-02-02T18:08:36.331Z,98459.97
2023-02-02T18:13:38.401Z,98442.22
2023-02-02T18:18:40.539Z,98456.28
2023-02-02T18:23:42.366Z,98445.22
2023-02-02T18:28:45.056Z,98454.28
2023-02-02T18:33:47.649Z,98467.31
2023-02-02T18:38:51.163Z,98471.00
2023-02-02T18:43:56.173Z,98479.28
2023-02-02T18:48:57.955Z,98469.31
2023-02-02T18:54:02.592Z,98470.56
2023-02-02T18:59:06.077Z,98473.38
2023-02-02T19:04:08.717Z,98475.50
2023-02-02T19:09:11.112Z,98476.63
2023-02-02T19:14:18.657Z,98473.25
2023-02-02T19:19:26.033Z,98471.50
2023-02-02T19:24:39.971Z,98475.13
2023-02-02T19:29:41.755Z,98481.19
2023-02-02T19:34:43.911Z,98473.56
2023-02-02T19:39:47.153Z,98475.53
2023-02-02T19:44:48.964Z,98481.56
2023-02-02T19:49:50.971Z,98477.28
2023-02-02T19:54:53.946Z,98470.72
2023-02-02T19:59:55.785Z,98464.97
2023-02-02T20:05:06.153Z,98460.66
2023-02-02T20:10:30.280Z,98464.34
2023-02-02T20:15:35.280Z,98464.34
2023-02-02T20:20:43.415Z,98468.53
2023-02-02T20:25:45.636Z,98484.03
2023-02-02T20:30:48.107Z,98473.78
2023-02-02T20:35:50.332Z,98478.91
2023-02-02T20:40:52.443Z,98490.28
2023-02-02T20:45:54.289Z,98498.91
2023-02-02T20:50:56.206Z,98499.84
2023-02-02T20:56:00.190Z,98489.59
2023-02-02T21:01:05.454Z,98489.59
2023-02-02T21:06:07.457Z,98502.28
2023-02-02T21:11:09.710Z,98493.66
2023-02-02T21:16:11.616Z,98489.47
2023-02-02T21:21:15.808Z,98483.34
2023-02-02T21:26:22.348Z,98483.09
2023-02-02T21:31:26.446Z,98484.84
2023-02-02T21:36:30.096Z,98484.03
2023-02-02T21:41:33.494Z,98476.97
2023-02-02T21:46:38.860Z,98479.00
2023-02-02T21:51:40.927Z,98477.38
2023-02-02T21:56:43.263Z,98487.44
2023-02-02T22:01:47.972Z,98481.88
2023-02-02T22:07:00.135Z,98479.00
2023-02-02T22:12:11.571Z,98474.38
2023-02-02T22:17:39.609Z,98481.34
2023-02-02T22:22:52.002Z,98477.94
2023-02-02T22:27:59.760Z,98482.06
2023-02-02T22:33:01.610Z,98474.38
2023-02-02T22:38:03.953Z,98459.06
2023-02-02T22:43:06.227Z,98451.34
2023-02-02T22:48:08.139Z,98455.69
2023-02-02T22:53:10.312Z,98454.84
2023-02-02T22:58:12.153Z,98447.72
2023-02-02T23:03:13.930Z,98435.28
2023-02-02T23:08:15.755Z,98440.13
2023-02-02T23:13:18.008Z,98445.66
2023-02-02T23:18:19.837Z,98438.00
2023-02-02T23:23:23.087Z,98441.69
2023-02-02T23:28:24.864Z,98431.72
2023-02-02T23:33:27.139Z,98438.09
2023-02-02T23:38:29.016Z,98430.59
2023-02-02T23:43:30.843Z,98429.38
2023-02-02T23:48:32.628Z,98427.84
2023-02-02T23:53:34.771Z,98422.81
2023-02-02T23:58:36.621Z,98416.25
